Terminal Aerodrome Forecast
Issued by NWS

Home | Current Version | Previous Version | Text Only | Print | Product List | Glossary On
Versions: 1 2 3 4 5 6 7 8 9 10 11 12 13 14 15 16 17 18
588
FTUS45 KABQ 250525
TAFSAF
TAF
KSAF 250525Z 2506/2606 VRB05KT P6SM SKC
     FM252000 22013KT P6SM BKN150
     FM260200 15010KT P6SM BKN100=

USA.gov is the U.S. government's official web portal to all federal, state and local government web resources and services.